DW4721 Fema DK current weather conditions

sailwx.info

Wind from 119 at 4 knots gusting 11

Air temperature 29.4° C
Dewpoint 21.1° C

Last reported at 2019-Jun-19 14:00 UTC.
Time now 2019-Jun-19 15:00 UTC

Location: N 54°59' E 011°32'.
View on Google Maps.

See reports from other nearby stations

  
Tides and Currents Weather Stations Pressure Air Temp Water Temp Dewpoint Dewpoint Depression Visibility Wind Speed Wind Dir Waves Ship Positions
date/time (UTC)wind fromknots sea level pressurealtimeterstation pressurevisibilityair tempwater tempwave heightnotes
2019-Jun-19 14:00 119 4 gusting 11 29.4
2019-Jun-19 13:45 123 5 gusting 11 29.4
2019-Jun-19 13:30 123 2 gusting 10 28.9
2019-Jun-19 13:15 124 3 gusting 10 28.9
2019-Jun-19 13:00 117 5 gusting 13 28.3
2019-Jun-19 12:45 121 5 gusting 13 28.3
2019-Jun-19 12:30 117 7 gusting 12 28.3
2019-Jun-19 12:15 140 6 gusting 13 27.8
2019-Jun-19 12:00 130 6 gusting 13 27.8
2019-Jun-19 11:45 125 6 gusting 10 27.8
2019-Jun-19 11:30 119 4 gusting 10 27.2
2019-Jun-19 11:15 096 0 gusting 6 26.1
2019-Jun-19 11:01 093 25.0
2019-Jun-19 10:48 063 0 gusting 6 24.4
2019-Jun-19 10:31 053 0 gusting 6 24.4
2019-Jun-19 10:17 066 25.0
2019-Jun-19 10:01 084 25.6
2019-Jun-19 09:47 113 25.6
2019-Jun-19 09:32 117 3 gusting 6 25.0
2019-Jun-19 09:16 123 5 gusting 8 24.4
2019-Jun-19 09:01 123 5 gusting 8 24.4
2019-Jun-19 08:45 119 5 gusting 9 23.9
2019-Jun-19 08:31 117 3 gusting 7 23.3
2019-Jun-19 08:16 127 5 gusting 7 23.3
2019-Jun-19 08:00 117 4 gusting 6 22.8
2019-Jun-19 07:45 058 22.8
2019-Jun-19 07:31 094 23.3
2019-Jun-19 07:16 112 22.8
2019-Jun-19 07:01 109 22.8
2019-Jun-19 06:45 092 21.7
2019-Jun-19 06:30 112 21.1
2019-Jun-19 06:15 100 0 gusting 6 20.6
2019-Jun-19 06:00 113 3 gusting 7 20.0
2019-Jun-19 05:47 121 3 gusting 7 19.4
2019-Jun-19 05:31 113 1 gusting 7 19.4
2019-Jun-19 05:16 107 2 gusting 7 18.9
2019-Jun-19 05:02 118 3 gusting 6 18.3
2019-Jun-19 04:46 136 2 gusting 6 18.3
2019-Jun-19 04:31 127 0 gusting 6 18.3
2019-Jun-19 04:17 108 2 gusting 6 17.8
2019-Jun-19 04:01 107 0 gusting 6 17.8
2019-Jun-19 03:45 106 1 gusting 6 17.8
2019-Jun-19 03:30 091 17.8
2019-Jun-19 03:15 108 17.8
2019-Jun-19 03:00 089 17.8
2019-Jun-19 02:46 105 17.8
2019-Jun-19 02:31 109 0 gusting 5 17.8
2019-Jun-19 02:15 041 2 gusting 5 17.8
2019-Jun-19 02:00 111 17.8
2019-Jun-19 01:45 122 1 gusting 8 17.8
2019-Jun-19 01:30 117 2 gusting 9 18.3
2019-Jun-19 01:15 113 18.3
2019-Jun-19 01:00 117 4 gusting 7 18.3
2019-Jun-19 00:45 117 2 gusting 6 17.8
2019-Jun-19 00:30 111 17.8
2019-Jun-19 00:15 111 17.8
2019-Jun-19 00:00 075 17.8
2019-Jun-18 23:45 050 17.8
2019-Jun-18 23:30 042 17.8
2019-Jun-18 23:17 041 18.3
2019-Jun-18 23:02 043 18.3
2019-Jun-18 22:47 040 18.3
2019-Jun-18 22:31 307 18.3
2019-Jun-18 22:17 279 3 gusting 12 18.9
2019-Jun-18 22:01 237 8 gusting 13 20.0
2019-Jun-18 21:46 050 20.0
2019-Jun-18 21:31 050 20.0
2019-Jun-18 21:00 334 1 gusting 7 18.9
2019-Jun-18 20:46 356 18.9
2019-Jun-18 20:30 278 4 gusting 10 19.4
2019-Jun-18 20:16 248 6 gusting 16 19.4
2019-Jun-18 20:01 014 19.4
2019-Jun-18 19:46 003 19.4
2019-Jun-18 19:31 345 2 gusting 9 18.9
2019-Jun-18 19:16 311 3 gusting 10 18.9
2019-Jun-18 19:01 003 8 gusting 13 20.0
2019-Jun-18 18:45 309 9 gusting 15 21.1
2019-Jun-18 18:31 104 21.7
2019-Jun-18 18:15 103 22.2
2019-Jun-18 18:01 111 22.8
2019-Jun-18 17:46 118 22.8
2019-Jun-18 17:30 109 23.3
2019-Jun-18 17:15 112 23.3
2019-Jun-18 17:00 111 23.9
2019-Jun-18 16:46 119 24.4
2019-Jun-18 16:30 117 25.6
2019-Jun-18 16:15 123 27.2
2019-Jun-18 16:00 123 27.8
2019-Jun-18 15:45 121 1 gusting 10 27.8
2019-Jun-18 15:30 129 1 gusting 10 27.8
2019-Jun-18 15:15 120 5 gusting 10 27.8
2019-Jun-18 15:00 120 27.8
2019-Jun-18 14:45 117 27.2
2019-Jun-18 14:30 144 4 gusting 12 26.7
2019-Jun-18 14:15 134 5 gusting 11 27.2
2019-Jun-18 14:00 127 6 gusting 13 26.7
2019-Jun-18 13:45 132 4 gusting 12 26.7
2019-Jun-18 13:30 160 0 gusting 9 26.1
2019-Jun-18 13:03 159 1 gusting 10 25.6
2019-Jun-18 12:46 127 25.6
2019-Jun-18 12:16 127 5 gusting 10 25.6
2019-Jun-18 12:01 194 25.0
2019-Jun-18 11:46 127 2 gusting 10 25.0
2019-Jun-18 11:31 157 6 gusting 10 24.4
2019-Jun-18 11:16 124 24.4
2019-Jun-18 11:01 167 4 gusting 10 23.9
2019-Jun-18 10:46 140 0 gusting 10 24.4
2019-Jun-18 10:30 130 2 gusting 9 23.9
2019-Jun-18 10:16 129 4 gusting 9 23.3
2019-Jun-18 10:00 204 23.3
2019-Jun-18 09:45 123 4 gusting 10 23.3
2019-Jun-18 09:30 133 6 gusting 13 22.2
2019-Jun-18 09:15 137 6 gusting 10 21.7
2019-Jun-18 09:00 125 5 gusting 11 21.7
2019-Jun-18 08:45 132 6 gusting 11 21.7
2019-Jun-18 08:30 146 5 gusting 12 21.7
2019-Jun-18 08:15 123 3 gusting 10 21.7
2019-Jun-18 08:00 119 6 gusting 11 21.1
2019-Jun-18 07:45 136 5 gusting 11 20.6
2019-Jun-18 07:32 121 5 gusting 10 20.0
2019-Jun-18 07:17 136 3 gusting 13 20.0
2019-Jun-18 07:01 125 7 gusting 13 19.4
2019-Jun-18 06:47 136 3 gusting 13 19.4
2019-Jun-18 06:31 132 9 gusting 15 18.9
2019-Jun-18 06:16 127 10 gusting 15 18.9
2019-Jun-18 06:01 129 6 gusting 11 18.9
2019-Jun-18 05:46 134 6 gusting 13 18.9
2019-Jun-18 05:32 123 7 gusting 11 17.8
2019-Jun-18 05:16 121 8 gusting 13 17.2
2019-Jun-18 05:01 123 9 gusting 13 17.2
2019-Jun-18 04:46 124 7 gusting 10 17.2
2019-Jun-18 04:30 131 6 gusting 13 17.2
2019-Jun-18 04:15 131 6 gusting 10 17.2
2019-Jun-18 04:00 134 7 gusting 12 16.7
2019-Jun-18 03:45 129 8 gusting 13 16.7
2019-Jun-18 03:30 129 7 gusting 12 16.1
2019-Jun-18 03:15 130 6 gusting 12 16.1
2019-Jun-18 03:00 122 6 gusting 12 16.1
2019-Jun-18 02:45 129 6 gusting 11 16.1
2019-Jun-18 02:30 132 6 gusting 11 16.1
2019-Jun-18 02:15 127 7 gusting 13 16.1
2019-Jun-18 02:01 125 6 gusting 11 16.1
2019-Jun-18 01:46 134 6 gusting 9 16.1
2019-Jun-18 01:32 129 6 gusting 9 16.1
2019-Jun-18 01:17 125 6 gusting 12 16.1
2019-Jun-18 01:01 133 4 gusting 8 16.1
2019-Jun-18 00:46 123 5 gusting 8 16.1
2019-Jun-18 00:32 127 5 gusting 7 16.1
2019-Jun-18 00:16 128 4 gusting 8 16.1
2019-Jun-18 00:02 126 6 gusting 10 16.1
2019-Jun-17 23:46 128 4 gusting 8 16.1
2019-Jun-17 23:32 127 5 gusting 9 15.6
2019-Jun-17 23:16 132 5 gusting 9 15.6
2019-Jun-17 23:01 126 5 gusting 9 16.1
2019-Jun-17 22:46 123 6 gusting 10 16.1
2019-Jun-17 22:31 124 6 gusting 10 16.1
2019-Jun-17 22:16 117 3 gusting 6 16.1
2019-Jun-17 22:01 113 3 gusting 6 16.1
2019-Jun-17 21:46 115 1 gusting 6 16.7
2019-Jun-17 21:31 120 3 gusting 6 16.7
2019-Jun-17 21:15 109 2 gusting 5 17.2
2019-Jun-17 21:01 110 17.8
2019-Jun-17 20:46 110 17.8
2019-Jun-17 20:31 110 18.3
2019-Jun-17 20:16 110 18.9
2019-Jun-17 20:01 122 20.0
2019-Jun-17 19:45 094 21.1
2019-Jun-17 19:30 094 22.8
2019-Jun-17 19:15 094 23.3
2019-Jun-17 19:01 094 23.9
2019-Jun-17 18:46 094 23.9
2019-Jun-17 18:31 094 23.9